Time;durP1;ratioP1;P1;durP2;ratioP2;P2;SDS_P1;SDS_P2;PMS_P1;PMS_P2;Temp;Humidity;BMP_temperature;BMP_pressure;BME280_temperature;BME280_humidity;BME280_pressure;Samples;Min_cycle;Max_cycle;Signal;HPM_P1;HPM_P2
2021/07/26 00:00:56;;;;;;;10.40;6.53;;;;;;;20.52;68.92;100491.73;1771459;81;21217;-78
2021/07/26 00:04:02;;;;;;;14.93;6.37;;;;;;;20.50;69.05;100494.43;1770341;80;21162;-75
2021/07/26 00:07:09;;;;;;;15.13;6.65;;;;;;;20.48;69.25;100504.40;1770651;81;21829;-88
2021/07/26 00:10:14;;;;;;;15.60;6.58;;;;;;;20.43;69.34;100501.45;1772054;81;21715;-79
2021/07/26 00:13:20;;;;;;;22.48;7.28;;;;;;;20.39;69.36;100496.91;1772094;81;21268;-88
2021/07/26 00:16:26;;;;;;;14.45;6.58;;;;;;;20.35;69.40;100495.67;1770937;81;21295;-78
2021/07/26 00:19:33;;;;;;;18.02;6.65;;;;;;;20.35;69.54;100493.45;1770568;80;21168;-79
2021/07/26 00:22:43;;;;;;;14.83;6.45;;;;;;;20.33;69.46;100497.02;1770445;81;21174;-88
2021/07/26 00:25:47;;;;;;;18.95;6.58;;;;;;;20.32;69.38;100499.47;1771509;81;21336;-79
2021/07/26 00:28:54;;;;;;;12.55;6.90;;;;;;;20.33;69.24;100501.18;1770380;80;21769;-77
2021/07/26 00:32:00;;;;;;;13.93;5.85;;;;;;;20.33;69.42;100492.84;1770612;80;21197;-87
2021/07/26 00:35:07;;;;;;;12.95;6.33;;;;;;;20.31;69.42;100495.84;1770487;80;21582;-88
2021/07/26 00:38:16;;;;;;;8.83;6.03;;;;;;;20.30;69.31;100496.09;1772093;81;21277;-78
2021/07/26 00:41:22;;;;;;;12.70;6.53;;;;;;;20.29;69.22;100494.40;1771167;81;21343;-78
2021/07/26 00:44:29;;;;;;;14.80;6.75;;;;;;;20.29;69.09;100495.79;1771995;81;21288;-78
2021/07/26 00:47:34;;;;;;;15.70;6.20;;;;;;;20.28;69.03;100492.68;1771902;81;21158;-78
2021/07/26 00:50:40;;;;;;;13.98;6.55;;;;;;;20.28;68.93;100498.23;1770428;80;21260;-78
2021/07/26 00:53:46;;;;;;;13.25;6.45;;;;;;;20.27;68.97;100492.38;1776048;80;21260;-87
2021/07/26 00:56:53;;;;;;;12.93;6.35;;;;;;;20.27;69.02;100491.84;1784209;80;21322;-88
2021/07/26 00:59:58;;;;;;;14.28;5.85;;;;;;;20.27;69.11;100490.99;1784363;80;21169;-88
2021/07/26 01:03:03;;;;;;;14.63;6.42;;;;;;;20.26;69.16;100494.31;1785589;80;21168;-88
2021/07/26 01:06:09;;;;;;;11.35;5.92;;;;;;;20.23;69.20;100493.94;1784748;80;21295;-78
2021/07/26 01:09:14;;;;;;;12.03;6.53;;;;;;;20.21;69.21;100490.55;1785685;80;21868;-88
2021/07/26 01:12:21;;;;;;;17.70;7.10;;;;;;;20.17;69.18;100493.79;1784365;80;21176;-88
2021/07/26 01:15:26;;;;;;;14.05;6.62;;;;;;;20.15;69.25;100500.14;1784526;80;21212;-78
2021/07/26 01:18:33;;;;;;;12.93;6.53;;;;;;;20.12;69.24;100492.27;1785640;80;21149;-78
2021/07/26 01:21:38;;;;;;;13.95;6.40;;;;;;;20.10;69.28;100494.44;1784688;80;21805;-78
2021/07/26 01:24:45;;;;;;;13.48;6.03;;;;;;;20.08;69.40;100491.03;1785757;80;21280;-78
2021/07/26 01:27:50;;;;;;;15.05;6.75;;;;;;;20.07;69.34;100489.89;1785657;80;21280;-88
2021/07/26 01:30:56;;;;;;;13.83;7.00;;;;;;;20.03;69.45;100486.73;1783976;80;21304;-88
2021/07/26 01:34:02;;;;;;;16.32;7.00;;;;;;;19.98;69.61;100492.14;1785734;80;21214;-88
2021/07/26 01:37:08;;;;;;;11.90;6.60;;;;;;;19.94;69.89;100492.30;1784216;80;21832;-88
2021/07/26 01:40:14;;;;;;;13.80;7.12;;;;;;;19.90;70.34;100498.88;1785488;80;21323;-78
2021/07/26 01:43:19;;;;;;;16.00;6.80;;;;;;;19.85;70.68;100500.63;1785875;80;21157;-78
2021/07/26 01:46:58;;;;;;;13.58;6.58;;;;;;;19.80;70.87;100514.36;1784722;80;21334;-88
2021/07/26 01:50:07;;;;;;;13.95;7.05;;;;;;;19.76;70.75;100513.12;1785916;79;21299;-78
2021/07/26 01:53:12;;;;;;;19.85;7.08;;;;;;;19.71;70.55;100508.81;1785771;80;21821;-87
2021/07/26 01:56:18;;;;;;;16.62;6.65;;;;;;;19.69;70.66;100504.89;1776908;80;21300;-78
2021/07/26 01:59:23;;;;;;;16.55;6.80;;;;;;;19.68;70.68;100510.14;1777673;81;21291;-87
2021/07/26 02:02:31;;;;;;;13.78;6.87;;;;;;;19.68;70.76;100521.78;1777824;81;21260;-80
2021/07/26 02:05:30;;;;;;;14.43;6.12;;;;;;;19.69;70.75;100529.02;1777745;80;21280;-87
2021/07/26 02:08:34;;;;;;;11.97;6.87;;;;;;;19.67;70.87;100523.70;1777715;81;21130;-78
2021/07/26 02:11:41;;;;;;;18.17;6.50;;;;;;;19.65;71.00;100524.46;1776197;80;21196;-88
2021/07/26 02:14:46;;;;;;;10.75;7.00;;;;;;;19.62;71.12;100527.17;1777645;80;21308;-78
2021/07/26 02:17:52;;;;;;;11.30;6.53;;;;;;;19.62;71.25;100532.72;1777565;81;21835;-78
2021/07/26 02:20:57;;;;;;;13.05;7.47;;;;;;;19.59;71.32;100531.75;1777289;80;21213;-79
2021/07/26 02:24:02;;;;;;;15.85;7.05;;;;;;;19.59;71.45;100532.30;1777808;81;21269;-79
2021/07/26 02:27:08;;;;;;;22.37;7.35;;;;;;;19.59;71.35;100529.52;1776346;81;21366;-79
2021/07/26 02:30:15;;;;;;;15.58;7.10;;;;;;;19.61;71.25;100538.48;1777759;81;21818;-88
2021/07/26 02:33:20;;;;;;;17.73;7.12;;;;;;;19.64;71.09;100534.72;1777733;81;21208;-79
2021/07/26 02:36:25;;;;;;;16.73;7.00;;;;;;;19.72;70.85;100542.45;1776650;80;21157;-88
2021/07/26 02:39:31;;;;;;;16.07;6.62;;;;;;;19.83;70.48;100540.27;1777736;81;21255;-88
2021/07/26 02:42:36;;;;;;;17.55;7.12;;;;;;;19.99;69.90;100540.17;1777664;81;21138;-78
2021/07/26 02:45:43;;;;;;;14.00;6.45;;;;;;;20.16;69.29;100544.87;1777312;81;21181;-87
2021/07/26 02:48:48;;;;;;;8.78;6.15;;;;;;;20.35;68.61;100538.73;1777574;81;21137;-87
2021/07/26 02:51:53;;;;;;;12.15;6.62;;;;;;;20.54;67.76;100538.72;1777945;80;21243;-87
2021/07/26 02:54:58;;;;;;;13.95;6.20;;;;;;;20.73;66.89;100542.28;1777933;81;21679;-87
2021/07/26 02:58:03;;;;;;;10.65;6.53;;;;;;;20.94;66.27;100540.35;1777754;81;21263;-79
2021/07/26 03:01:08;;;;;;;16.87;6.28;;;;;;;21.16;64.76;100541.45;1777671;81;21303;-87
2021/07/26 03:04:13;;;;;;;10.60;5.22;;;;;;;21.32;64.08;100543.27;1777741;81;21800;-87
2021/07/26 03:07:19;;;;;;;15.53;6.53;;;;;;;21.49;63.51;100552.56;1776264;80;21224;-77
2021/07/26 03:10:24;;;;;;;11.70;6.58;;;;;;;21.65;62.55;100550.45;1777423;81;21912;-87
2021/07/26 03:13:29;;;;;;;11.70;5.75;;;;;;;21.79;61.90;100552.43;1777600;81;21282;-84
2021/07/26 03:16:35;;;;;;;13.32;5.72;;;;;;;21.93;61.48;100554.41;1776494;81;21626;-78
2021/07/26 03:19:41;;;;;;;12.37;5.70;;;;;;;22.06;60.94;100555.50;1776101;81;21317;-88
2021/07/26 03:23:10;;;;;;;17.62;6.45;;;;;;;22.16;60.65;100557.17;1776551;80;21694;-78
2021/07/26 03:26:16;;;;;;;13.60;7.97;;;;;;;22.30;60.48;100561.03;1777051;80;21161;-78
2021/07/26 03:29:22;;;;;;;16.00;8.00;;;;;;;22.51;60.08;100562.30;1776275;81;21798;-79
2021/07/26 03:32:27;;;;;;;15.72;6.08;;;;;;;22.72;59.70;100556.00;1776384;81;21272;-87
2021/07/26 03:35:32;;;;;;;15.25;5.92;;;;;;;22.86;59.07;100557.38;1777365;81;21287;-86
2021/07/26 03:38:38;;;;;;;10.08;5.45;;;;;;;22.98;58.72;100555.95;1776221;81;21283;-86
2021/07/26 03:41:44;;;;;;;31.70;6.00;;;;;;;23.03;58.40;100557.44;1776665;81;21837;-77
2021/07/26 03:44:50;;;;;;;13.70;5.15;;;;;;;23.17;58.08;100559.34;1777650;81;21185;-78
2021/07/26 03:47:59;;;;;;;12.28;5.95;;;;;;;23.27;57.63;100559.51;1776391;81;21892;-87
2021/07/26 03:51:05;;;;;;;18.67;6.10;;;;;;;23.37;57.15;100559.67;1777320;81;21295;-87
2021/07/26 03:54:10;;;;;;;14.13;5.25;;;;;;;23.47;57.30;100558.98;1776299;81;21145;-79
2021/07/26 03:57:16;;;;;;;8.85;5.12;;;;;;;23.55;57.15;100561.91;1780378;80;21311;-87
2021/07/26 04:00:22;;;;;;;10.48;5.92;;;;;;;23.60;57.11;100557.23;1785574;80;21690;-78
2021/07/26 04:03:32;;;;;;;10.10;5.78;;;;;;;23.69;56.61;100554.88;1785778;80;21279;-87
2021/07/26 04:06:37;;;;;;;8.65;5.90;;;;;;;23.73;56.18;100560.81;1784825;80;21307;-78
2021/07/26 04:09:45;;;;;;;21.23;5.90;;;;;;;23.74;56.45;100561.09;1785606;80;21153;-87
2021/07/26 04:12:51;;;;;;;11.45;5.03;;;;;;;23.78;57.39;100560.88;1785893;80;21264;-79
2021/07/26 04:15:58;;;;;;;9.68;4.90;;;;;;;23.87;57.27;100562.13;1784104;80;21745;-79
2021/07/26 04:19:04;;;;;;;14.25;5.22;;;;;;;23.91;56.71;100561.91;1785812;80;21149;-86
2021/07/26 04:22:10;;;;;;;16.32;5.92;;;;;;;23.97;56.99;100561.70;1785819;80;21315;-79
2021/07/26 04:25:17;;;;;;;17.75;6.12;;;;;;;24.04;56.30;100565.69;1785858;80;21679;-79
2021/07/26 04:28:21;;;;;;;13.32;5.30;;;;;;;24.10;56.22;100559.64;1784807;80;21363;-79
2021/07/26 04:31:27;;;;;;;17.10;5.72;;;;;;;24.22;55.61;100561.18;1784212;80;21295;-79
2021/07/26 04:34:33;;;;;;;11.45;5.55;;;;;;;24.30;55.54;100561.28;1785881;80;21264;-87
2021/07/26 04:37:38;;;;;;;14.33;5.42;;;;;;;24.34;54.79;100561.06;1785796;79;21149;-79
2021/07/26 04:40:44;;;;;;;18.25;6.33;;;;;;;24.42;54.70;100562.59;1785827;80;21280;-78
2021/07/26 04:43:49;;;;;;;10.08;5.72;;;;;;;24.51;54.65;100555.39;1785931;80;21184;-78
2021/07/26 04:46:54;;;;;;;15.03;5.50;;;;;;;24.57;53.72;100561.36;1785703;80;21311;-87
2021/07/26 04:50:01;;;;;;;21.35;5.03;;;;;;;24.67;52.91;100563.41;1785814;80;21147;-78
2021/07/26 04:53:06;;;;;;;14.75;5.17;;;;;;;24.67;52.56;100555.86;1785729;79;21193;-86
2021/07/26 04:56:11;;;;;;;16.00;5.67;;;;;;;24.76;52.22;100562.39;1785735;80;21295;-79
2021/07/26 04:59:17;;;;;;;11.33;5.20;;;;;;;24.82;51.69;100561.33;1772879;80;21228;-79
2021/07/26 05:02:21;;;;;;;9.03;5.65;;;;;;;24.89;50.83;100562.81;1770436;81;21157;-79
2021/07/26 05:05:27;;;;;;;12.95;6.28;;;;;;;24.93;51.25;100560.30;1771537;81;21338;-86
2021/07/26 05:08:32;;;;;;;15.35;6.40;;;;;;;24.99;51.45;100572.70;1771697;81;21185;-78
2021/07/26 05:11:40;;;;;;;18.07;5.72;;;;;;;25.01;50.26;100564.58;1771514;81;21747;-79
2021/07/26 05:14:44;;;;;;;9.25;6.03;;;;;;;25.03;50.49;100566.55;1734871;82;21247;-78
2021/07/26 05:17:50;;;;;;;16.82;6.33;;;;;;;25.09;50.66;100566.37;1735196;82;21307;-79
2021/07/26 05:20:55;;;;;;;12.40;6.03;;;;;;;25.15;50.54;100563.06;1733251;82;21180;-87
2021/07/26 05:24:00;;;;;;;15.80;6.30;;;;;;;25.21;50.34;100567.02;1771917;81;21288;-79
2021/07/26 05:27:11;;;;;;;11.60;5.62;;;;;;;25.27;50.52;100568.50;1733282;82;21267;-79
2021/07/26 05:30:16;;;;;;;19.82;5.80;;;;;;;25.33;50.84;100570.21;1735186;82;21225;-76
2021/07/26 05:33:22;;;;;;;17.23;6.37;;;;;;;25.42;51.43;100563.00;1719783;81;21262;-84
2021/07/26 05:36:29;;;;;;;11.83;5.90;;;;;;;25.46;49.21;100564.16;1758965;81;21264;-76
2021/07/26 05:39:34;;;;;;;13.60;6.55;;;;;;;25.60;51.07;100563.98;1761665;81;21327;-83
2021/07/26 05:42:39;;;;;;;15.32;5.90;;;;;;;25.67;49.75;100571.57;1758129;81;21260;-76
2021/07/26 05:45:46;;;;;;;13.60;6.37;;;;;;;25.73;50.47;100570.48;1771091;81;21599;-76
2021/07/26 05:48:51;;;;;;;10.58;6.03;;;;;;;25.82;50.22;100572.81;1771624;81;21696;-76
2021/07/26 05:51:57;;;;;;;10.58;5.90;;;;;;;25.93;49.67;100568.41;1772012;81;21339;-84
2021/07/26 05:55:03;;;;;;;13.83;6.42;;;;;;;26.02;49.37;100563.14;1749653;80;21177;-85
2021/07/26 05:58:08;;;;;;;14.85;5.92;;;;;;;26.05;49.46;100567.34;1732638;83;21291;-76
2021/07/26 06:04:30;;;;;;;14.50;6.45;;;;;;;26.14;49.93;100565.70;1768527;81;21881;-77
2021/07/26 06:07:35;;;;;;;8.68;5.67;;;;;;;26.24;49.33;100565.17;1776600;81;21244;-82
2021/07/26 06:10:40;;;;;;;14.98;6.05;;;;;;;26.32;49.65;100564.38;1773285;81;21742;-79
2021/07/26 06:13:45;;;;;;;14.80;5.78;;;;;;;26.38;48.97;100557.66;1775201;81;21149;-79
2021/07/26 06:16:54;;;;;;;14.53;5.87;;;;;;;26.47;48.81;100563.05;1775897;81;21357;-87
2021/07/26 06:19:59;;;;;;;12.28;6.17;;;;;;;26.50;49.58;100562.52;1775804;81;21264;-79
2021/07/26 06:23:05;;;;;;;17.90;6.28;;;;;;;26.60;49.03;100559.73;1792150;79;21259;-88
2021/07/26 06:26:10;;;;;;;12.20;5.50;;;;;;;26.69;48.52;100562.28;1791201;79;21133;-87
2021/07/26 06:29:16;;;;;;;9.85;5.30;;;;;;;26.76;48.79;100558.63;1745578;82;21299;-79
2021/07/26 06:32:23;;;;;;;13.80;5.42;;;;;;;26.83;46.94;100560.34;1758141;81;21694;-79
2021/07/26 06:35:28;;;;;;;11.38;6.00;;;;;;;26.88;48.11;100554.73;1752477;81;21160;-88
2021/07/26 06:38:36;;;;;;;18.23;5.12;;;;;;;26.94;48.87;100562.03;1755261;81;21241;-86
2021/07/26 06:41:42;;;;;;;12.33;5.53;;;;;;;27.00;48.23;100555.30;1763694;81;21686;-87
2021/07/26 06:44:47;;;;;;;14.85;5.80;;;;;;;27.06;48.85;100556.16;1761920;81;21328;-79
2021/07/26 06:47:54;;;;;;;16.27;5.70;;;;;;;27.11;48.42;100561.24;1763739;81;21263;-78
2021/07/26 06:50:59;;;;;;;20.68;5.70;;;;;;;27.23;47.49;100558.98;1763028;81;21264;-87
2021/07/26 06:54:05;;;;;;;11.88;6.15;;;;;;;27.38;49.18;100558.69;1762035;81;21243;-79
2021/07/26 06:57:11;;;;;;;8.88;5.50;;;;;;;27.53;48.01;100557.30;1722953;82;21197;-78
2021/07/26 07:00:18;;;;;;;11.33;5.87;;;;;;;27.66;48.05;100561.47;1709082;82;21339;-78
2021/07/26 07:03:22;;;;;;;7.15;5.10;;;;;;;27.72;46.95;100568.25;1709561;83;21789;-78
2021/07/26 07:06:27;;;;;;;8.70;4.92;;;;;;;27.76;46.48;100564.31;1713726;83;21197;-79
2021/07/26 07:09:34;;;;;;;9.38;5.20;;;;;;;27.90;46.78;100564.53;1715605;83;21114;-84
2021/07/26 07:12:39;;;;;;;9.08;4.42;;;;;;;28.03;46.16;100577.42;1714349;82;21304;-86
2021/07/26 07:15:45;;;;;;;7.42;4.40;;;;;;;28.12;45.46;100577.68;1738958;82;21721;-78
2021/07/26 07:18:50;;;;;;;14.30;5.97;;;;;;;28.19;45.88;100575.98;1737469;82;21137;-86
2021/07/26 07:21:56;;;;;;;11.63;5.08;;;;;;;28.25;45.61;100578.48;1741237;82;21172;-87
2021/07/26 07:25:02;;;;;;;8.30;4.70;;;;;;;28.28;45.20;100577.91;1739143;82;21344;-79
2021/07/26 07:28:08;;;;;;;12.43;5.50;;;;;;;28.37;45.44;100582.41;1743722;82;21159;-78
2021/07/26 07:31:15;;;;;;;10.60;5.17;;;;;;;28.43;45.72;100580.41;1730990;82;21286;-87
2021/07/26 07:34:21;;;;;;;8.53;5.12;;;;;;;28.50;47.06;100573.89;1735495;82;21243;-78
2021/07/26 07:37:21;;;;;;;8.43;5.20;;;;;;;28.62;46.11;100576.37;1738988;82;21793;-78
2021/07/26 07:40:26;;;;;;;8.43;4.55;;;;;;;28.71;44.97;100572.66;1708135;83;21323;-79
2021/07/26 07:43:34;;;;;;;9.83;5.08;;;;;;;28.77;45.75;100577.11;1707001;83;21197;-86
2021/07/26 07:46:40;;;;;;;9.78;4.55;;;;;;;28.82;45.78;100573.42;1721686;82;21870;-87
2021/07/26 07:49:46;;;;;;;12.82;4.25;;;;;;;28.89;44.62;100566.05;1737388;82;21193;-87
2021/07/26 07:52:53;;;;;;;9.20;3.92;;;;;;;28.91;44.53;100569.42;1737785;82;21289;-78
2021/07/26 07:55:59;;;;;;;16.65;4.83;;;;;;;28.97;44.84;100576.73;1736002;82;21995;-78
2021/07/26 07:59:07;;;;;;;12.10;4.60;;;;;;;29.02;43.61;100571.05;1714522;82;21137;-78
2021/07/26 08:02:12;;;;;;;5.85;3.87;;;;;;;29.08;43.89;100575.54;1712136;82;21291;-79
2021/07/26 08:05:19;;;;;;;9.40;4.40;;;;;;;29.06;44.77;100577.79;1706464;83;21346;-78
2021/07/26 08:08:25;;;;;;;9.30;4.45;;;;;;;29.14;44.25;100576.33;1707879;83;21276;-88
2021/07/26 08:11:31;;;;;;;20.55;4.62;;;;;;;29.24;43.16;100574.84;1704248;83;21291;-79
2021/07/26 08:14:36;;;;;;;10.48;4.67;;;;;;;29.25;43.03;100571.72;1721917;83;21245;-86
2021/07/26 08:17:42;;;;;;;8.70;3.87;;;;;;;29.25;43.03;100571.72;1709217;82;21260;-87
2021/07/26 08:20:47;;;;;;;6.95;3.33;;;;;;;29.24;41.90;100565.81;1725690;83;22248;-85
2021/07/26 08:23:53;;;;;;;9.63;4.15;;;;;;;29.24;41.90;100565.81;1715893;83;21225;-87
2021/07/26 08:26:59;;;;;;;12.15;4.00;;;;;;;29.29;41.96;100573.38;1694985;83;21776;-78
2021/07/26 08:30:05;;;;;;;12.80;4.40;;;;;;;29.25;41.62;100579.33;1734521;82;21275;-87
2021/07/26 08:33:10;;;;;;;10.90;4.00;;;;;;;29.34;42.71;100580.38;1734573;81;21307;-87
2021/07/26 08:36:18;;;;;;;13.80;3.92;;;;;;;29.34;42.71;100580.38;1765506;81;21201;-87
2021/07/26 08:39:17;;;;;;;14.00;3.83;;;;;;;29.43;42.90;100570.16;1766440;81;21691;-78
2021/07/26 08:42:16;;;;;;;8.80;3.60;;;;;;;29.48;38.65;100581.95;1769494;81;21691;-87
2021/07/26 08:45:23;;;;;;;7.28;3.12;;;;;;;29.52;39.89;100576.00;1769317;81;21864;-79
2021/07/26 08:48:33;;;;;;;6.87;2.98;;;;;;;29.58;39.08;100572.02;1756755;81;21291;-87
2021/07/26 08:51:38;;;;;;;7.22;3.20;;;;;;;29.56;37.95;100565.85;1767372;81;21315;-87
2021/07/26 08:54:44;;;;;;;9.93;3.33;;;;;;;29.68;38.34;100569.09;1763419;81;21869;-88
2021/07/26 08:57:54;;;;;;;7.92;3.35;;;;;;;29.68;38.34;100569.09;1746161;81;21722;-79
2021/07/26 09:00:59;;;;;;;4.53;3.00;;;;;;;29.70;38.66;100571.06;1760778;81;21323;-80
2021/07/26 09:04:06;;;;;;;8.03;3.30;;;;;;;29.68;36.62;100573.89;1765760;80;21252;-80
2021/07/26 09:07:15;;;;;;;9.30;3.17;;;;;;;29.65;36.97;100568.30;1758805;81;21714;-87
2021/07/26 09:10:27;;;;;;;8.35;3.15;;;;;;;29.64;36.87;100560.98;1731701;83;21374;-78
2021/07/26 09:13:47;;;;;;;12.85;3.47;;;;;;;29.62;37.55;100563.24;1759848;81;21277;-86
2021/07/26 09:17:03;;;;;;;5.15;3.30;;;;;;;29.62;37.55;100563.24;1765271;81;21736;-86
2021/07/26 09:20:09;;;;;;;10.70;3.25;;;;;;;29.73;37.15;100553.53;1755350;81;21283;-79
2021/07/26 09:23:22;;;;;;;7.22;3.80;;;;;;;29.73;37.15;100553.53;1757794;81;21267;-88
2021/07/26 09:26:35;;;;;;;8.23;3.25;;;;;;;29.75;37.69;100560.30;1745425;81;21296;-87
2021/07/26 09:29:41;;;;;;;6.22;3.17;;;;;;;29.78;36.96;100567.60;1761001;79;21138;-79
2021/07/26 09:32:46;;;;;;;10.50;3.05;;;;;;;29.80;36.97;100556.02;1724269;82;21146;-80
2021/07/26 09:35:52;;;;;;;5.80;2.90;;;;;;;29.81;37.58;100565.31;1700437;82;21261;-88
2021/07/26 09:39:03;;;;;;;8.08;3.98;;;;;;;29.80;36.71;100551.78;1735401;81;21610;-79
2021/07/26 09:42:08;;;;;;;7.70;3.35;;;;;;;29.78;38.35;100553.51;1732839;82;21697;-79
2021/07/26 09:45:28;;;;;;;8.08;2.52;;;;;;;29.76;36.88;100543.66;1754271;81;21552;-87
2021/07/26 09:48:36;;;;;;;8.45;3.10;;;;;;;29.78;38.40;100554.91;1730337;81;21279;-78
2021/07/26 09:51:42;;;;;;;5.37;3.27;;;;;;;29.76;36.27;100550.70;1727173;82;21278;-87
2021/07/26 09:54:54;;;;;;;10.00;3.33;;;;;;;29.72;36.90;100543.40;1725810;82;21283;-78
2021/07/26 09:57:59;;;;;;;9.50;3.35;;;;;;;29.75;37.14;100535.77;1730838;82;21286;-79
2021/07/26 10:01:05;;;;;;;11.05;3.42;;;;;;;29.76;37.29;100539.42;1732515;82;21763;-88
2021/07/26 10:04:11;;;;;;;6.17;3.50;;;;;;;29.78;38.10;100533.77;1700591;82;21344;-87
2021/07/26 10:07:19;;;;;;;9.55;2.92;;;;;;;29.87;36.89;100531.69;1710145;83;21274;-78
2021/07/26 10:10:26;;;;;;;6.60;2.92;;;;;;;29.91;38.48;100534.17;1661084;85;21170;-87
2021/07/26 10:13:31;;;;;;;9.00;3.08;;;;;;;29.97;37.91;100537.20;1691324;85;21157;-87
2021/07/26 10:16:36;;;;;;;10.58;3.05;;;;;;;30.01;36.94;100532.64;1691614;85;21284;-88
2021/07/26 10:19:41;;;;;;;9.60;3.47;;;;;;;30.07;38.60;100537.09;1692449;83;21236;-79
2021/07/26 10:22:46;;;;;;;10.35;3.60;;;;;;;30.10;37.26;100537.88;1684049;85;21310;-80
2021/07/26 10:26:04;;;;;;;6.90;3.08;;;;;;;30.10;37.59;100526.60;1670784;83;21853;-88
2021/07/26 10:29:10;;;;;;;11.03;3.22;;;;;;;30.07;36.65;100530.05;1690561;85;21157;-88
2021/07/26 10:32:41;;;;;;;7.95;3.10;;;;;;;30.05;36.38;100541.61;1692479;85;21187;-80
2021/07/26 10:35:59;;;;;;;8.15;3.00;;;;;;;30.01;36.65;100525.02;1692136;85;21299;-85
2021/07/26 10:39:04;;;;;;;15.68;4.00;;;;;;;30.04;36.47;100526.41;1689807;85;21310;-79
2021/07/26 10:42:11;;;;;;;9.93;3.50;;;;;;;30.06;35.76;100517.06;1691229;85;21311;-79
2021/07/26 10:45:16;;;;;;;16.48;3.45;;;;;;;30.09;36.88;100519.86;1692561;85;21833;-79
2021/07/26 10:48:38;;;;;;;12.37;3.83;;;;;;;30.05;36.49;100513.98;1692159;85;21306;-78
2021/07/26 10:51:46;;;;;;;9.50;3.50;;;;;;;30.08;36.52;100511.98;1692449;85;21341;-87
2021/07/26 10:54:54;;;;;;;4.83;2.90;;;;;;;30.14;35.45;100509.95;1692893;83;21177;-88
2021/07/26 10:57:58;;;;;;;5.80;2.98;;;;;;;30.15;36.63;100520.09;1692326;85;21300;-87
2021/07/26 11:01:28;;;;;;;6.78;2.77;;;;;;;30.12;36.01;100510.23;1688910;85;21830;-79
2021/07/26 11:04:44;;;;;;;8.50;3.55;;;;;;;30.11;36.21;100522.64;1701907;82;21190;-79
2021/07/26 11:07:49;;;;;;;7.40;3.20;;;;;;;30.10;36.34;100504.62;1712533;83;21291;-87
2021/07/26 11:10:57;;;;;;;11.48;3.05;;;;;;;30.15;36.33;100511.05;1708295;84;21328;-78
2021/07/26 11:14:09;;;;;;;9.05;3.47;;;;;;;30.16;35.08;100501.48;1709136;84;21845;-79
2021/07/26 11:17:11;;;;;;;7.92;3.27;;;;;;;30.16;36.54;100500.06;1711537;83;21193;-88
2021/07/26 11:20:17;;;;;;;9.35;3.50;;;;;;;30.20;36.05;100502.52;1712328;83;21256;-79
2021/07/26 11:23:32;;;;;;;11.50;3.05;;;;;;;30.25;35.76;100503.02;1720703;83;21257;-78
2021/07/26 11:26:40;;;;;;;11.43;3.12;;;;;;;30.26;34.77;100505.56;1688653;83;21259;-78
2021/07/26 11:29:45;;;;;;;10.48;3.02;;;;;;;30.24;35.66;100513.47;1742282;81;21161;-78
2021/07/26 11:32:56;;;;;;;13.75;3.27;;;;;;;30.23;36.48;100500.52;1748052;81;21280;-87
2021/07/26 11:36:03;;;;;;;6.83;3.30;;;;;;;30.28;34.50;100513.14;1758781;81;21146;-85
2021/07/26 11:39:15;;;;;;;12.45;3.92;;;;;;;30.29;34.91;100505.52;1754819;81;21765;-86
2021/07/26 11:42:21;;;;;;;4.83;3.15;;;;;;;30.25;34.73;100503.89;1754510;81;21284;-87
2021/07/26 11:45:28;;;;;;;5.90;3.62;;;;;;;30.25;35.58;100505.30;1749152;81;21157;-78
2021/07/26 11:48:35;;;;;;;6.72;3.27;;;;;;;30.26;36.34;100499.09;1759640;81;21161;-87
2021/07/26 11:51:42;;;;;;;6.15;3.30;;;;;;;30.26;35.13;100495.69;1754514;81;21283;-87
2021/07/26 11:54:47;;;;;;;9.05;3.72;;;;;;;30.25;35.49;100494.02;1753284;81;21328;-77
2021/07/26 11:58:13;;;;;;;7.35;2.85;;;;;;;30.31;35.65;100486.89;1727130;82;21256;-87
2021/07/26 12:01:14;;;;;;;14.10;3.37;;;;;;;30.34;35.17;100492.74;1751791;81;21149;-78
2021/07/26 12:04:22;;;;;;;7.83;3.17;;;;;;;30.34;35.03;100491.91;1725930;82;21265;-79
2021/07/26 12:07:52;;;;;;;7.92;2.70;;;;;;;30.34;35.02;100494.16;1706011;84;21284;-87
2021/07/26 12:10:58;;;;;;;11.15;2.95;;;;;;;30.30;34.94;100498.72;1687882;84;21311;-78
2021/07/26 12:14:03;;;;;;;8.18;3.30;;;;;;;30.30;34.94;100498.72;1667647;85;21336;-87
2021/07/26 12:17:30;;;;;;;14.87;3.50;;;;;;;30.25;34.49;100485.55;1699456;84;21694;-86
2021/07/26 12:20:39;;;;;;;5.12;2.50;;;;;;;30.24;34.92;100479.62;1693645;84;21343;-78
2021/07/26 12:23:46;;;;;;;4.33;2.75;;;;;;;30.31;35.13;100484.91;1697869;84;21264;-84
2021/07/26 12:27:09;;;;;;;9.33;3.10;;;;;;;30.36;35.33;100489.64;1638243;85;21183;-79
2021/07/26 12:30:15;;;;;;;8.13;3.15;;;;;;;30.37;35.35;100484.26;1667677;85;21343;-87
2021/07/26 12:33:37;;;;;;;8.20;3.77;;;;;;;30.37;34.46;100480.02;1702244;82;21609;-87
2021/07/26 12:36:42;;;;;;;5.62;2.90;;;;;;;30.36;34.66;100472.71;1678311;84;21201;-79
2021/07/26 12:39:47;;;;;;;9.45;2.87;;;;;;;30.29;34.61;100471.66;1675731;85;22194;-78
2021/07/26 12:42:57;;;;;;;12.45;3.15;;;;;;;30.25;34.47;100479.91;1669009;85;21154;-79
2021/07/26 12:46:10;;;;;;;8.55;3.27;;;;;;;30.22;34.79;100476.28;1661233;85;21279;-87
2021/07/26 12:49:16;;;;;;;4.65;2.40;;;;;;;30.20;34.94;100469.25;1704672;84;21311;-86
2021/07/26 12:52:21;;;;;;;15.00;3.62;;;;;;;30.18;34.64;100480.84;1704886;84;21299;-87
2021/07/26 12:55:27;;;;;;;7.10;2.95;;;;;;;30.16;34.35;100473.27;1680522;84;21350;-78
2021/07/26 12:58:32;;;;;;;5.70;3.00;;;;;;;30.14;34.07;100469.89;1704695;84;21268;-87
2021/07/26 13:01:38;;;;;;;17.73;3.27;;;;;;;30.14;35.16;100465.66;1662301;85;21381;-87
2021/07/26 13:04:44;;;;;;;8.15;2.87;;;;;;;30.21;35.28;100467.55;1670026;85;21723;-87
2021/07/26 13:07:50;;;;;;;7.90;2.80;;;;;;;30.24;35.14;100459.04;1726601;82;21296;-79
2021/07/26 13:10:56;;;;;;;6.72;2.55;;;;;;;30.24;35.14;100459.04;1729708;82;21157;-79
2021/07/26 13:14:01;;;;;;;9.63;3.00;;;;;;;30.19;34.96;100464.18;1730742;82;21259;-79
2021/07/26 13:17:08;;;;;;;8.58;3.12;;;;;;;30.14;35.03;100457.78;1728337;82;21318;-80
2021/07/26 13:20:13;;;;;;;4.20;3.00;;;;;;;30.12;35.12;100453.83;1727693;83;21205;-88
2021/07/26 13:23:19;;;;;;;8.88;2.58;;;;;;;30.09;34.28;100446.54;1727718;83;21300;-88
2021/07/26 13:26:25;;;;;;;11.18;3.00;;;;;;;30.07;34.28;100453.90;1726331;83;21200;-87
2021/07/26 13:29:30;;;;;;;6.22;2.60;;;;;;;30.05;34.55;100447.70;1727349;83;21172;-86
2021/07/26 13:32:38;;;;;;;12.85;3.05;;;;;;;30.07;34.76;100450.25;1731088;83;21331;-86
2021/07/26 13:35:44;;;;;;;8.10;3.27;;;;;;;30.06;34.50;100452.20;1731577;83;21326;-79
2021/07/26 13:38:50;;;;;;;11.18;3.40;;;;;;;30.01;33.57;100446.63;1732399;83;21976;-78
2021/07/26 13:41:57;;;;;;;9.13;3.05;;;;;;;29.99;34.73;100441.88;1731000;83;21323;-79
2021/07/26 13:45:04;;;;;;;9.33;2.85;;;;;;;29.99;33.64;100446.11;1731422;83;21319;-78
2021/07/26 13:48:09;;;;;;;7.92;2.87;;;;;;;29.97;35.38;100451.19;1732178;83;21217;-79
2021/07/26 13:51:14;;;;;;;11.65;3.33;;;;;;;29.97;35.38;100451.19;1732291;83;21201;-81
2021/07/26 13:54:19;;;;;;;9.13;2.87;;;;;;;29.94;33.76;100444.20;1716892;83;21323;-89
2021/07/26 13:57:24;;;;;;;9.45;3.30;;;;;;;29.91;33.41;100455.23;1733253;83;21307;-79
2021/07/26 14:00:29;;;;;;;4.58;2.80;;;;;;;29.87;33.37;100451.33;1733041;83;21873;-79
2021/07/26 14:03:34;;;;;;;5.62;3.00;;;;;;;29.87;34.23;100452.16;1732715;83;21349;-87
2021/07/26 14:06:39;;;;;;;9.38;3.12;;;;;;;29.87;34.12;100455.56;1732313;83;21327;-79
2021/07/26 14:09:45;;;;;;;8.50;3.35;;;;;;;29.87;34.35;100458.38;1709080;84;21327;-87
2021/07/26 14:12:51;;;;;;;4.25;3.27;;;;;;;29.85;34.56;100454.46;1708546;84;21756;-78
2021/07/26 14:15:56;;;;;;;9.33;3.05;;;;;;;29.83;33.71;100461.53;1708432;84;21317;-88
2021/07/26 14:19:01;;;;;;;8.83;3.45;;;;;;;29.79;33.45;100459.33;1708134;84;21267;-79
2021/07/26 14:22:07;;;;;;;6.50;3.00;;;;;;;29.76;33.58;100458.52;1707395;84;21251;-88
2021/07/26 14:25:13;;;;;;;7.47;3.25;;;;;;;29.75;33.70;100456.00;1708519;84;21358;-87